createdAt,value
2019-06-07T00:02:32.615Z,8.85
2019-06-07T00:05:09.802Z,9.10
2019-06-07T00:07:43.540Z,8.68
2019-06-07T00:10:34.979Z,8.33
2019-06-07T00:12:53.476Z,8.23
2019-06-07T00:15:29.055Z,8.28
2019-06-07T00:18:03.890Z,8.95
2019-06-07T00:20:38.273Z,9.05
2019-06-07T00:23:15.878Z,8.48
2019-06-07T00:25:48.514Z,8.65
2019-06-07T00:28:22.528Z,9.15
2019-06-07T00:30:56.709Z,8.43
2019-06-07T00:33:30.778Z,8.50
2019-06-07T00:36:05.118Z,8.58
2019-06-07T00:38:39.206Z,8.55
2019-06-07T00:41:15.012Z,8.85
2019-06-07T00:43:49.430Z,9.18
2019-06-07T00:46:25.425Z,9.43
2019-06-07T00:48:59.728Z,9.20
2019-06-07T00:51:49.487Z,8.80
2019-06-07T00:54:12.309Z,9.40
2019-06-07T00:56:46.578Z,9.25
2019-06-07T00:59:28.318Z,9.28
2019-06-07T01:01:57.050Z,9.40
2019-06-07T01:04:31.539Z,9.70
2019-06-07T01:07:05.766Z,9.30
2019-06-07T01:09:40.078Z,9.45
2019-06-07T01:12:14.796Z,10.55
2019-06-07T01:14:49.899Z,11.35
2019-06-07T01:17:43.761Z,10.82
2019-06-07T01:20:06.540Z,11.38
2019-06-07T01:22:40.685Z,11.05
2019-06-07T01:25:15.757Z,11.35
2019-06-07T01:27:50.329Z,11.65
2019-06-07T01:30:26.660Z,11.68
2019-06-07T01:33:01.376Z,10.90
2019-06-07T01:35:35.369Z,11.78
2019-06-07T01:38:09.719Z,11.95
2019-06-07T01:40:43.844Z,11.93
2019-06-07T01:43:19.560Z,12.98
2019-06-07T01:45:54.153Z,12.13
2019-06-07T01:48:47.996Z,12.60
2019-06-07T01:51:05.240Z,12.80
2019-06-07T01:53:39.631Z,13.38
2019-06-07T01:56:13.881Z,12.65
2019-06-07T01:58:48.202Z,13.32
2019-06-07T02:01:23.937Z,13.70
2019-06-07T02:03:58.379Z,13.83
2019-06-07T02:06:32.644Z,13.40
2019-06-07T02:09:08.164Z,13.95
2019-06-07T02:11:42.415Z,14.38
2019-06-07T02:14:16.788Z,14.80
2019-06-07T02:16:50.769Z,14.40
2019-06-07T02:19:27.461Z,14.85
2019-06-07T02:22:01.131Z,14.60
2019-06-07T02:24:36.458Z,14.70
2019-06-07T02:27:10.762Z,16.77
2019-06-07T02:29:45.413Z,17.00
2019-06-07T02:32:19.374Z,18.73
2019-06-07T02:34:53.786Z,18.27
2019-06-07T02:37:32.415Z,18.17
2019-06-07T02:40:04.309Z,18.12
2019-06-07T02:42:42.738Z,16.95
2019-06-07T02:45:14.832Z,17.32
2019-06-07T02:47:49.467Z,17.15
2019-06-07T02:50:26.251Z,16.67
2019-06-07T02:53:00.194Z,17.67
2019-06-07T02:56:25.947Z,16.75
2019-06-07T02:58:11.997Z,17.55
2019-06-07T03:01:06.522Z,17.20
2019-06-07T03:03:24.688Z,17.87
2019-06-07T03:05:59.529Z,17.80
2019-06-07T03:08:36.735Z,16.27
2019-06-07T03:11:11.870Z,17.52
2019-06-07T03:13:50.194Z,17.20
2019-06-07T03:16:31.317Z,18.82
2019-06-07T03:19:19.166Z,18.23
2019-06-07T03:21:55.706Z,18.27
2019-06-07T03:24:33.690Z,18.02
2019-06-07T03:29:43.590Z,17.92
2019-06-07T03:32:19.159Z,17.85
2019-06-07T03:34:53.297Z,18.05
2019-06-07T03:37:29.954Z,18.27
2019-06-07T03:40:04.366Z,18.25
2019-06-07T03:42:40.133Z,17.67
2019-06-07T03:45:14.681Z,18.00
2019-06-07T03:47:48.662Z,17.82
2019-06-07T03:50:22.795Z,18.52
2019-06-07T03:52:57.017Z,18.67
2019-06-07T03:55:34.874Z,19.02
2019-06-07T04:00:43.474Z,19.23
2019-06-07T04:03:32.910Z,18.30
2019-06-07T04:05:54.341Z,18.82
2019-06-07T04:08:30.869Z,19.45
2019-06-07T04:11:05.829Z,19.82
2019-06-07T04:13:42.943Z,21.55
2019-06-07T04:16:15.795Z,23.10
2019-06-07T04:18:49.986Z,21.60
2019-06-07T04:21:24.038Z,21.30
2019-06-07T04:23:58.232Z,22.87
2019-06-07T04:26:34.503Z,22.80
2019-06-07T04:29:32.184Z,22.77
2019-06-07T04:31:44.348Z,23.15
2019-06-07T04:34:18.543Z,23.65
2019-06-07T04:36:59.036Z,23.87
2019-06-07T04:39:34.037Z,24.12
2019-06-07T04:42:07.238Z,24.60
2019-06-07T04:44:42.827Z,24.70
2019-06-07T04:47:20.799Z,26.52
2019-06-07T04:49:55.152Z,27.35
2019-06-07T04:52:30.468Z,25.80
2019-06-07T04:55:05.282Z,26.33
2019-06-07T04:57:42.714Z,41.13
2019-06-07T05:00:46.579Z,35.48
2019-06-07T05:02:51.278Z,37.65
2019-06-07T05:05:25.272Z,39.53
2019-06-07T05:08:07.259Z,36.10
2019-06-07T05:10:38.796Z,35.30
2019-06-07T05:13:12.835Z,36.53
2019-06-07T05:15:46.797Z,34.38
2019-06-07T05:18:21.022Z,34.23
2019-06-07T05:20:55.216Z,32.90
2019-06-07T05:24:03.579Z,36.03
2019-06-07T05:26:06.423Z,33.18
2019-06-07T05:28:42.833Z,33.70
2019-06-07T05:31:16.622Z,34.05
2019-06-07T05:33:50.753Z,34.65
2019-06-07T05:36:24.877Z,33.48
2019-06-07T05:38:58.915Z,33.23
2019-06-07T05:41:34.157Z,33.80
2019-06-07T05:44:13.016Z,31.87
2019-06-07T05:46:47.156Z,31.15
2019-06-07T05:49:20.920Z,31.52
2019-06-07T05:51:54.813Z,31.60
2019-06-07T05:54:29.237Z,29.87
2019-06-07T05:57:03.502Z,31.50
2019-06-07T05:59:41.075Z,30.72
2019-06-07T06:02:22.264Z,30.88
2019-06-07T06:04:49.968Z,29.87
2019-06-07T06:07:24.034Z,32.05
2019-06-07T06:09:58.519Z,28.98
2019-06-07T06:12:38.212Z,31.93
2019-06-07T06:15:09.766Z,29.15
2019-06-07T06:17:47.958Z,31.52
2019-06-07T06:20:20.181Z,30.88
2019-06-07T06:22:54.233Z,29.85
2019-06-07T06:25:32.347Z,29.90
2019-06-07T06:28:11.573Z,29.48
2019-06-07T06:30:41.815Z,29.07
2019-06-07T06:33:33.182Z,28.47
2019-06-07T06:35:52.770Z,28.95
2019-06-07T06:38:26.917Z,28.57
2019-06-07T06:41:15.082Z,28.57
2019-06-07T06:47:36.007Z,28.57
2019-06-07T06:50:11.775Z,28.55
2019-06-07T06:52:48.495Z,27.37
2019-06-07T06:55:21.889Z,26.90
2019-06-07T06:57:56.652Z,26.42
2019-06-07T07:01:04.092Z,28.15
2019-06-07T07:06:24.611Z,26.50
2019-06-07T07:08:40.619Z,27.15
2019-06-07T07:11:14.676Z,26.77
2019-06-07T07:13:54.218Z,26.20
2019-06-07T07:16:28.154Z,27.00
2019-06-07T07:19:02.266Z,25.62
2019-06-07T07:21:36.539Z,25.55
2019-06-07T07:24:21.017Z,26.02
2019-06-07T07:26:48.712Z,27.80
2019-06-07T07:29:23.176Z,26.65
2019-06-07T07:31:57.530Z,26.65
2019-06-07T07:34:36.587Z,26.27
2019-06-07T07:37:07.837Z,27.25
2019-06-07T07:39:42.093Z,25.82
2019-06-07T07:42:21.483Z,26.52
2019-06-07T07:44:56.666Z,26.33
2019-06-07T07:47:30.938Z,28.35
2019-06-07T07:50:05.071Z,27.55
2019-06-07T07:52:39.416Z,27.40
2019-06-07T07:55:13.735Z,27.62
2019-06-07T07:57:49.460Z,27.07
2019-06-07T08:00:49.984Z,26.27
2019-06-07T08:03:04.348Z,26.60
2019-06-07T08:05:42.809Z,26.25
2019-06-07T08:08:13.444Z,25.60
2019-06-07T08:10:50.417Z,26.70
2019-06-07T08:13:26.988Z,25.30
2019-06-07T08:16:08.298Z,24.85
2019-06-07T08:18:36.714Z,25.55
2019-06-07T08:21:24.855Z,26.10
2019-06-07T08:23:48.225Z,24.72
2019-06-07T08:26:23.784Z,24.47
2019-06-07T08:29:02.321Z,24.80
2019-06-07T08:31:34.345Z,24.90
2019-06-07T08:34:08.830Z,23.38
2019-06-07T08:36:43.403Z,24.10
2019-06-07T08:39:17.560Z,24.32
2019-06-07T08:42:00.545Z,23.70
2019-06-07T08:44:27.594Z,22.85
2019-06-07T08:47:18.901Z,23.00
2019-06-07T08:49:38.883Z,22.65
2019-06-07T08:52:13.103Z,22.67
2019-06-07T08:54:47.925Z,20.70
2019-06-07T08:57:22.508Z,21.85
2019-06-07T09:00:05.943Z,20.95
2019-06-07T09:02:32.712Z,20.45
2019-06-07T09:05:13.353Z,20.62
2019-06-07T09:08:07.158Z,20.25
2019-06-07T09:10:25.967Z,20.15
2019-06-07T09:13:07.505Z,19.48
2019-06-07T09:15:37.125Z,18.92
2019-06-07T09:20:50.085Z,18.92
2019-06-07T09:23:24.254Z,19.02
2019-06-07T09:26:06.469Z,19.95
2019-06-07T09:28:35.721Z,19.92
2019-06-07T09:31:12.568Z,20.02
2019-06-07T09:33:47.054Z,19.80
2019-06-07T09:36:21.315Z,20.57
2019-06-07T09:38:58.693Z,19.60
2019-06-07T09:41:46.951Z,20.35
2019-06-07T09:44:21.468Z,20.32
2019-06-07T09:46:44.915Z,19.10
2019-06-07T09:49:31.531Z,18.98
2019-06-07T09:51:55.762Z,19.23
2019-06-07T09:55:03.713Z,19.65
2019-06-07T09:57:16.443Z,21.45
2019-06-07T09:59:42.769Z,20.02
2019-06-07T10:02:16.781Z,20.55
2019-06-07T10:04:51.188Z,19.60
2019-06-07T10:07:31.928Z,19.50
2019-06-07T10:10:22.871Z,19.15
2019-06-07T10:12:37.354Z,19.20
2019-06-07T10:15:12.023Z,18.90
2019-06-07T10:17:45.967Z,19.25
2019-06-07T10:20:20.607Z,18.25
2019-06-07T10:22:54.835Z,18.70
2019-06-07T10:25:29.158Z,18.80
2019-06-07T10:28:03.872Z,18.32
2019-06-07T10:30:38.451Z,18.62
2019-06-07T10:33:12.750Z,17.90
2019-06-07T10:35:47.914Z,17.87
2019-06-07T10:38:22.006Z,17.73
2019-06-07T10:40:56.383Z,18.20
2019-06-07T10:43:30.839Z,18.15
2019-06-07T10:46:05.716Z,18.50
2019-06-07T10:48:41.234Z,18.12
2019-06-07T10:51:15.714Z,17.20
2019-06-07T10:53:50.177Z,17.75
2019-06-07T10:56:25.280Z,16.90
2019-06-07T10:58:59.441Z,18.02
2019-06-07T11:01:33.708Z,17.98
2019-06-07T11:04:07.883Z,18.10
2019-06-07T11:06:42.843Z,18.57
2019-06-07T11:09:17.421Z,18.45
2019-06-07T11:11:51.617Z,18.80
2019-06-07T11:14:25.827Z,18.87
2019-06-07T11:17:00.132Z,18.90
2019-06-07T11:19:34.663Z,21.70
2019-06-07T11:22:10.108Z,21.37
2019-06-07T11:24:44.676Z,22.87
2019-06-07T11:27:19.331Z,22.50
2019-06-07T11:29:53.396Z,20.75
2019-06-07T11:32:27.747Z,21.75
2019-06-07T11:35:02.367Z,22.20
2019-06-07T11:37:36.750Z,21.25
2019-06-07T11:40:35.691Z,20.37
2019-06-07T11:42:48.990Z,20.12
2019-06-07T11:45:25.966Z,20.48
2019-06-07T11:48:01.042Z,19.45
2019-06-07T11:50:36.036Z,20.75
2019-06-07T11:53:12.578Z,20.43
2019-06-07T11:55:47.066Z,20.92
2019-06-07T11:58:21.908Z,19.65
2019-06-07T12:00:57.321Z,20.62
2019-06-07T12:03:31.541Z,19.87
2019-06-07T12:06:05.572Z,20.12
2019-06-07T12:08:39.707Z,20.23
2019-06-07T12:11:14.364Z,20.37
2019-06-07T12:13:48.685Z,19.67
2019-06-07T12:16:23.791Z,20.05
2019-06-07T12:18:57.976Z,20.10
2019-06-07T12:21:32.122Z,18.98
2019-06-07T12:24:06.530Z,19.17
2019-06-07T12:26:40.797Z,19.20
2019-06-07T12:29:14.991Z,19.65
2019-06-07T12:31:49.137Z,19.85
2019-06-07T12:34:23.272Z,19.50
2019-06-07T12:36:57.283Z,20.50
2019-06-07T12:39:31.688Z,19.52
2019-06-07T12:42:05.671Z,21.87
2019-06-07T12:44:39.838Z,23.92
2019-06-07T12:47:14.992Z,22.35
2019-06-07T12:49:52.395Z,22.02
2019-06-07T12:52:26.471Z,22.13
2019-06-07T12:55:00.727Z,21.82
2019-06-07T12:57:34.946Z,22.32
2019-06-07T13:00:11.181Z,21.27
2019-06-07T13:02:45.412Z,20.82
2019-06-07T13:05:20.002Z,20.95
2019-06-07T13:07:54.301Z,22.35
2019-06-07T13:10:28.634Z,20.88
2019-06-07T13:13:02.771Z,20.10
2019-06-07T13:15:36.697Z,21.25
2019-06-07T13:18:14.846Z,21.02
2019-06-07T13:20:46.949Z,21.40
2019-06-07T13:23:22.654Z,22.10
2019-06-07T13:25:56.855Z,22.90
2019-06-07T13:28:31.755Z,22.95
2019-06-07T13:31:06.118Z,21.93
2019-06-07T13:33:40.199Z,21.37
2019-06-07T13:36:14.386Z,23.30
2019-06-07T13:38:48.687Z,23.32
2019-06-07T13:41:36.330Z,23.35
2019-06-07T13:43:58.772Z,23.35
2019-06-07T13:46:34.105Z,22.82
2019-06-07T13:49:08.447Z,23.42
2019-06-07T13:51:42.537Z,23.90
2019-06-07T13:54:16.609Z,23.30
2019-06-07T13:57:02.254Z,24.25
2019-06-07T13:59:28.558Z,24.07
2019-06-07T14:02:02.844Z,24.75
2019-06-07T14:04:37.140Z,26.30
2019-06-07T14:07:11.470Z,25.72
2019-06-07T14:09:45.771Z,27.02
2019-06-07T14:12:22.093Z,26.27
2019-06-07T14:14:56.226Z,25.45
2019-06-07T14:17:31.001Z,25.60
2019-06-07T14:20:07.167Z,26.35
2019-06-07T14:22:41.327Z,27.02
2019-06-07T14:25:15.479Z,26.70
2019-06-07T14:27:49.721Z,25.82
2019-06-07T14:30:24.289Z,26.82
2019-06-07T14:32:58.547Z,25.70
2019-06-07T14:35:33.719Z,27.10
2019-06-07T14:38:08.091Z,26.52
2019-06-07T14:40:42.367Z,26.68
2019-06-07T14:43:16.664Z,26.93
2019-06-07T14:45:51.730Z,27.27
2019-06-07T14:48:25.944Z,27.80
2019-06-07T14:51:00.300Z,28.67
2019-06-07T14:53:35.087Z,28.27
2019-06-07T14:56:09.324Z,27.40
2019-06-07T14:58:43.742Z,27.93
2019-06-07T15:01:17.664Z,28.47
2019-06-07T15:03:51.775Z,28.52
2019-06-07T15:06:26.773Z,29.40
2019-06-07T15:09:01.049Z,29.23
2019-06-07T15:11:36.874Z,29.57
2019-06-07T15:14:11.241Z,31.65
2019-06-07T15:16:45.573Z,33.15
2019-06-07T15:19:19.760Z,32.90
2019-06-07T15:21:53.749Z,32.95
2019-06-07T15:24:28.145Z,35.10
2019-06-07T15:27:02.501Z,34.20
2019-06-07T15:29:37.902Z,33.58
2019-06-07T15:32:12.644Z,34.45
2019-06-07T15:34:46.919Z,33.50
2019-06-07T15:37:21.118Z,33.15
2019-06-07T15:39:55.082Z,33.15
2019-06-07T15:42:43.942Z,33.35
2019-06-07T15:45:05.840Z,33.45
2019-06-07T15:47:40.620Z,30.85
2019-06-07T15:50:16.799Z,31.93
2019-06-07T15:52:50.876Z,29.05
2019-06-07T15:55:25.827Z,29.20
2019-06-07T15:57:59.918Z,29.25
2019-06-07T16:00:35.449Z,27.50
2019-06-07T16:03:10.001Z,26.25
2019-06-07T16:05:44.473Z,26.70
2019-06-07T16:08:18.736Z,26.68
2019-06-07T16:10:53.178Z,27.15
2019-06-07T16:13:27.598Z,26.82
2019-06-07T16:16:01.857Z,26.68
2019-06-07T16:18:37.657Z,25.95
2019-06-07T16:21:12.119Z,25.77
2019-06-07T16:23:46.749Z,25.77
2019-06-07T16:26:21.323Z,24.35
2019-06-07T16:28:57.322Z,24.98
2019-06-07T16:31:31.647Z,24.30
2019-06-07T16:34:05.916Z,23.73
2019-06-07T16:36:40.355Z,24.40
2019-06-07T16:39:14.771Z,23.10
2019-06-07T16:41:49.427Z,22.80
2019-06-07T16:44:23.641Z,23.62
2019-06-07T16:46:57.832Z,22.98
2019-06-07T16:49:32.510Z,22.67
2019-06-07T16:52:06.964Z,22.77
2019-06-07T16:54:41.459Z,22.35
2019-06-07T16:57:15.691Z,22.85
2019-06-07T16:59:50.879Z,22.80
2019-06-07T17:02:25.499Z,22.58
2019-06-07T17:04:59.689Z,24.05
2019-06-07T17:07:34.203Z,23.15
2019-06-07T17:10:09.140Z,22.62
2019-06-07T17:12:44.827Z,21.57
2019-06-07T17:15:20.150Z,21.17
2019-06-07T17:17:54.253Z,20.48
2019-06-07T17:20:28.865Z,23.10
2019-06-07T17:23:02.905Z,22.95
2019-06-07T17:25:37.111Z,22.37
2019-06-07T17:28:12.264Z,20.45
2019-06-07T17:30:48.066Z,22.58
2019-06-07T17:33:22.467Z,21.05
2019-06-07T17:35:56.405Z,20.35
2019-06-07T17:38:31.458Z,20.50
2019-06-07T17:41:05.735Z,20.60
2019-06-07T17:43:50.458Z,20.50
2019-06-07T17:46:15.678Z,19.98
2019-06-07T17:48:49.815Z,20.05
2019-06-07T17:51:24.157Z,19.40
2019-06-07T17:53:58.321Z,20.70
2019-06-07T17:56:32.520Z,19.37
2019-06-07T17:59:06.643Z,19.73
2019-06-07T18:01:41.912Z,20.05
2019-06-07T18:04:17.305Z,18.87
2019-06-07T18:06:51.578Z,19.73
2019-06-07T18:09:27.396Z,18.80
2019-06-07T18:12:01.322Z,19.02
2019-06-07T18:14:35.715Z,18.32
2019-06-07T18:17:09.850Z,19.92
2019-06-07T18:19:45.273Z,19.75
2019-06-07T18:22:19.517Z,19.65
2019-06-07T18:24:54.703Z,19.77
2019-06-07T18:27:28.767Z,19.60
2019-06-07T18:30:11.442Z,20.15
2019-06-07T18:32:38.506Z,20.32
2019-06-07T18:35:12.592Z,19.98
2019-06-07T18:37:47.054Z,19.62
2019-06-07T18:40:21.127Z,20.05
2019-06-07T18:42:55.424Z,19.15
2019-06-07T18:45:29.581Z,19.42
2019-06-07T18:48:06.903Z,18.45
2019-06-07T18:50:41.193Z,17.92
2019-06-07T18:53:16.300Z,19.20
2019-06-07T18:55:52.160Z,18.62
2019-06-07T18:58:26.653Z,18.87
2019-06-07T19:01:00.801Z,19.45
2019-06-07T19:03:34.786Z,18.85
2019-06-07T19:06:09.495Z,18.30
2019-06-07T19:08:43.480Z,19.65
2019-06-07T19:11:17.574Z,18.75
2019-06-07T19:13:52.947Z,19.48
2019-06-07T19:16:28.141Z,19.07
2019-06-07T19:19:02.420Z,19.75
2019-06-07T19:21:36.552Z,19.87
2019-06-07T19:24:10.613Z,19.05
2019-06-07T19:26:44.599Z,19.32
2019-06-07T19:29:18.759Z,19.05
2019-06-07T19:31:52.996Z,19.98
2019-06-07T19:34:26.984Z,20.80
2019-06-07T19:37:02.123Z,19.87
2019-06-07T19:39:36.747Z,19.55
2019-06-07T19:42:10.888Z,20.30
2019-06-07T19:44:54.301Z,19.95
2019-06-07T19:47:21.080Z,19.23
2019-06-07T19:49:56.613Z,19.62
2019-06-07T19:52:31.703Z,18.70
2019-06-07T19:55:09.892Z,20.05
2019-06-07T19:57:42.766Z,20.20
2019-06-07T20:00:17.226Z,19.60
2019-06-07T20:02:51.415Z,19.37
2019-06-07T20:05:25.356Z,19.57
2019-06-07T20:08:00.600Z,18.90
2019-06-07T20:10:35.339Z,19.52
2019-06-07T20:13:09.568Z,19.42
2019-06-07T20:15:44.816Z,18.65
2019-06-07T20:18:18.672Z,18.65
2019-06-07T20:20:52.815Z,18.60
2019-06-07T20:23:29.796Z,18.92
2019-06-07T20:26:04.798Z,19.12
2019-06-07T20:28:39.852Z,19.02
2019-06-07T20:31:14.198Z,19.55
2019-06-07T20:33:48.506Z,18.82
2019-06-07T20:36:22.466Z,19.67
2019-06-07T20:38:57.947Z,20.27
2019-06-07T20:41:33.535Z,18.92
2019-06-07T20:44:08.067Z,19.17
2019-06-07T20:46:45.399Z,19.90
2019-06-07T20:49:19.791Z,19.17
2019-06-07T20:51:53.793Z,19.75
2019-06-07T20:54:27.865Z,19.10
2019-06-07T20:57:02.665Z,19.32
2019-06-07T20:59:36.873Z,18.98
2019-06-07T21:02:11.861Z,19.65
2019-06-07T21:04:48.206Z,19.65
2019-06-07T21:07:22.375Z,20.17
2019-06-07T21:09:56.677Z,19.67
2019-06-07T21:12:30.619Z,19.62
2019-06-07T21:15:09.713Z,18.73
2019-06-07T21:17:41.319Z,18.60
2019-06-07T21:20:15.807Z,18.62
2019-06-07T21:22:49.959Z,18.82
2019-06-07T21:25:24.207Z,18.55
2019-06-07T21:27:58.306Z,18.70
2019-06-07T21:30:32.576Z,18.82
2019-06-07T21:33:07.893Z,18.15
2019-06-07T21:35:42.134Z,18.40
2019-06-07T21:38:16.112Z,19.02
2019-06-07T21:40:50.300Z,18.85
2019-06-07T21:43:24.517Z,17.27
2019-06-07T21:46:05.532Z,18.70
2019-06-07T21:48:34.606Z,18.15
2019-06-07T21:51:08.692Z,17.70
2019-06-07T21:53:42.832Z,18.25
2019-06-07T21:56:17.035Z,18.40
2019-06-07T21:58:51.643Z,18.35
2019-06-07T22:01:30.818Z,18.48
2019-06-07T22:04:05.455Z,17.90
2019-06-07T22:06:39.748Z,18.30
2019-06-07T22:09:14.669Z,18.00
2019-06-07T22:11:48.631Z,18.60
2019-06-07T22:14:22.832Z,18.07
2019-06-07T22:16:56.979Z,18.20
2019-06-07T22:19:31.175Z,17.32
2019-06-07T22:22:07.150Z,18.60
2019-06-07T22:24:41.279Z,17.20
2019-06-07T22:27:15.681Z,18.32
2019-06-07T22:29:50.246Z,17.60
2019-06-07T22:32:24.548Z,17.85
2019-06-07T22:34:58.857Z,17.48
2019-06-07T22:37:32.985Z,18.73
2019-06-07T22:40:08.520Z,17.75
2019-06-07T22:42:42.740Z,17.40
2019-06-07T22:45:17.156Z,18.10
2019-06-07T22:47:51.422Z,18.27
2019-06-07T22:50:26.527Z,17.37
2019-06-07T22:53:00.478Z,18.35
2019-06-07T22:55:34.573Z,18.42
2019-06-07T22:58:09.989Z,18.05
2019-06-07T23:00:44.175Z,18.92
2019-06-07T23:03:19.096Z,18.37
2019-06-07T23:05:53.324Z,18.30
2019-06-07T23:08:27.229Z,18.20
2019-06-07T23:11:01.272Z,18.25
2019-06-07T23:13:35.492Z,19.32
2019-06-07T23:16:11.381Z,19.02
2019-06-07T23:18:45.519Z,18.95
2019-06-07T23:21:20.123Z,19.07
2019-06-07T23:23:54.613Z,18.00
2019-06-07T23:26:28.517Z,18.27
2019-06-07T23:29:02.790Z,19.35
2019-06-07T23:31:36.890Z,17.57
2019-06-07T23:34:11.086Z,18.20
2019-06-07T23:36:45.312Z,18.57
2019-06-07T23:39:22.032Z,18.87
2019-06-07T23:41:55.033Z,19.55
2019-06-07T23:44:29.196Z,18.02
2019-06-07T23:47:11.189Z,18.10
2019-06-07T23:49:39.529Z,18.77
2019-06-07T23:52:13.901Z,17.98
2019-06-07T23:54:48.063Z,18.57
2019-06-07T23:57:22.704Z,17.92
2019-06-07T23:59:56.873Z,18.57
